createdAt,value
2018-04-17T00:00:03.359Z,101747.02
2018-04-17T00:05:04.673Z,101748.98
2018-04-17T00:10:06.009Z,101756.91
2018-04-17T00:15:07.302Z,101760.33
2018-04-17T00:20:08.627Z,101767.33
2018-04-17T00:25:09.949Z,101764.27
2018-04-17T00:30:11.293Z,101772.89
2018-04-17T00:35:12.620Z,101771.66
2018-04-17T00:40:14.658Z,101772.14
2018-04-17T00:45:15.975Z,101774.02
2018-04-17T00:50:17.293Z,101781.70
2018-04-17T00:55:18.595Z,101788.70
2018-04-17T01:00:20.685Z,101790.41
2018-04-17T01:05:22.034Z,101806.33
2018-04-17T01:10:23.374Z,101805.69
2018-04-17T01:15:25.431Z,101802.10
2018-04-17T01:20:26.754Z,101810.67
2018-04-17T01:25:28.113Z,101808.63
2018-04-17T01:30:29.417Z,101810.56
2018-04-17T01:35:30.767Z,101813.73
2018-04-17T01:40:32.074Z,101808.63
2018-04-17T01:45:33.398Z,101811.58
2018-04-17T01:50:34.697Z,101809.69
2018-04-17T01:55:36.034Z,101827.47
2018-04-17T02:00:37.349Z,101816.25
2018-04-17T02:05:38.661Z,101825.97
2018-04-17T02:10:39.963Z,101824.94
2018-04-17T02:15:41.279Z,101824.43
2018-04-17T02:20:42.620Z,101830.41
2018-04-17T02:25:43.938Z,101829.33
2018-04-17T02:30:46.007Z,101829.55
2018-04-17T02:35:47.334Z,101829.62
2018-04-17T02:40:49.403Z,101843.03
2018-04-17T02:45:50.728Z,101843.34
2018-04-17T02:50:52.802Z,101846.52
2018-04-17T02:55:54.110Z,101853.64
2018-04-17T03:00:55.427Z,101864.84
2018-04-17T03:05:56.743Z,101862.25
2018-04-17T03:10:58.049Z,101869.07
2018-04-17T03:15:59.361Z,101865.77
2018-04-17T03:21:00.721Z,101865.25
2018-04-17T03:26:02.040Z,101872.35
2018-04-17T03:31:03.355Z,101880.44
2018-04-17T03:36:05.435Z,101877.63
2018-04-17T03:41:06.749Z,101882.58
2018-04-17T03:46:08.808Z,101883.34
2018-04-17T03:51:10.135Z,101891.98
2018-04-17T03:56:12.178Z,101891.94
2018-04-17T04:01:13.505Z,101889.48
2018-04-17T04:06:14.823Z,101893.91
2018-04-17T04:11:16.870Z,101893.45
2018-04-17T04:16:36.618Z,101895.38
2018-04-17T04:21:56.399Z,101906.20
2018-04-17T04:26:57.739Z,101916.30
2018-04-17T04:31:59.050Z,101918.97
2018-04-17T04:37:01.162Z,101923.64
2018-04-17T04:42:03.237Z,101933.17
2018-04-17T04:47:04.574Z,101951.06
2018-04-17T04:52:06.707Z,101954.99
2018-04-17T04:57:08.733Z,101959.77
2018-04-17T05:02:10.083Z,101967.53
2018-04-17T05:07:11.386Z,101969.58
2018-04-17T05:12:12.747Z,101968.67
2018-04-17T05:17:14.786Z,101974.33
2018-04-17T05:22:16.107Z,101974.21
2018-04-17T05:27:17.414Z,101987.75
2018-04-17T05:32:19.460Z,102007.23
2018-04-17T05:37:20.799Z,102028.72
2018-04-17T05:42:22.147Z,102034.63
2018-04-17T05:47:23.469Z,102036.84
2018-04-17T05:52:24.809Z,102051.93
2018-04-17T05:57:26.114Z,102057.42
2018-04-17T06:02:27.435Z,102074.12
2018-04-17T06:07:28.745Z,102078.59
2018-04-17T06:12:30.782Z,102083.66
2018-04-17T06:17:32.101Z,102075.93
2018-04-17T06:22:33.403Z,102079.03
2018-04-17T06:27:34.740Z,102089.91
2018-04-17T06:32:36.798Z,102091.79
2018-04-17T06:37:38.115Z,102085.25
2018-04-17T06:42:40.188Z,102082.00
2018-04-17T06:47:41.563Z,102084.98
2018-04-17T06:52:43.642Z,102089.58
2018-04-17T06:57:44.908Z,102090.98
2018-04-17T07:02:46.218Z,102099.73
2018-04-17T07:07:48.270Z,102103.12
2018-04-17T07:12:49.593Z,102108.84
2018-04-17T07:17:50.898Z,102110.36
2018-04-17T07:22:52.941Z,102108.95
2018-04-17T07:27:54.254Z,102107.38
2018-04-17T07:32:55.584Z,102115.21
2018-04-17T07:37:57.656Z,102111.50
2018-04-17T07:42:58.979Z,102105.22
2018-04-17T07:48:22.485Z,102110.12
2018-04-17T07:53:24.545Z,102120.11
2018-04-17T07:58:25.902Z,102128.31
2018-04-17T08:03:27.240Z,102127.86
2018-04-17T08:08:28.538Z,102133.44
2018-04-17T08:13:29.846Z,102146.65
2018-04-17T08:18:31.918Z,102153.81
2018-04-17T08:23:33.234Z,102150.75
2018-04-17T08:28:35.307Z,102159.24
2018-04-17T08:33:36.617Z,102160.94
2018-04-17T08:38:37.927Z,102155.72
2018-04-17T08:43:39.971Z,102161.27
2018-04-17T08:48:41.299Z,102160.77
2018-04-17T08:53:42.620Z,102170.05
2018-04-17T08:58:44.687Z,102171.37
2018-04-17T09:03:46.007Z,102172.63
2018-04-17T09:08:48.047Z,102174.62
2018-04-17T09:13:49.373Z,102168.06
2018-04-17T09:18:50.700Z,102166.23
2018-04-17T09:23:52.759Z,102157.71
2018-04-17T09:28:54.071Z,102164.20
2018-04-17T09:33:55.382Z,102156.38
2018-04-17T09:38:57.418Z,102159.53
2018-04-17T09:43:58.739Z,102159.27
2018-04-17T09:49:00.050Z,102163.64
2018-04-17T09:54:02.103Z,102163.98
2018-04-17T09:59:03.438Z,102160.83
2018-04-17T10:04:04.779Z,102155.60
2018-04-17T10:09:06.179Z,102152.94
2018-04-17T10:14:08.191Z,102157.52
2018-04-17T10:19:09.506Z,102154.92
2018-04-17T10:24:10.824Z,102158.68
2018-04-17T10:29:12.939Z,102159.78
2018-04-17T10:34:14.270Z,102150.94
2018-04-17T10:39:15.578Z,102142.53
2018-04-17T10:44:16.898Z,102143.62
2018-04-17T10:49:18.951Z,102132.58
2018-04-17T10:54:20.269Z,102118.92
2018-04-17T10:59:21.582Z,102118.84
2018-04-17T11:04:22.922Z,102112.34
2018-04-17T11:09:24.263Z,102119.54
2018-04-17T11:14:26.300Z,102124.01
2018-04-17T11:19:27.620Z,102118.27
2018-04-17T11:24:28.955Z,102113.22
2018-04-17T11:29:30.271Z,102116.31
2018-04-17T11:34:31.617Z,102125.37
2018-04-17T11:39:33.670Z,102122.69
2018-04-17T11:44:34.991Z,102112.81
2018-04-17T11:49:36.326Z,102111.57
2018-04-17T11:54:37.633Z,102112.77
2018-04-17T11:59:38.995Z,102107.02
2018-04-17T12:04:41.075Z,102114.87
2018-04-17T12:09:42.411Z,102108.46
2018-04-17T12:14:43.769Z,102121.57
2018-04-17T12:19:45.080Z,102126.48
2018-04-17T12:24:46.402Z,102126.56
2018-04-17T12:29:47.727Z,102123.93
2018-04-17T12:34:49.037Z,102115.42
2018-04-17T12:39:50.365Z,102126.10
2018-04-17T12:44:51.689Z,102127.44
2018-04-17T12:49:53.022Z,102128.13
2018-04-17T12:54:54.355Z,102121.63
2018-04-17T12:59:55.677Z,102121.42
2018-04-17T13:04:57.766Z,102123.61
2018-04-17T13:09:59.089Z,102133.50
2018-04-17T13:15:00.419Z,102130.78
2018-04-17T13:20:01.751Z,102122.12
2018-04-17T13:25:03.825Z,102115.62
2018-04-17T13:30:05.158Z,102119.84
2018-04-17T13:35:06.475Z,102105.89
2018-04-17T13:40:07.838Z,102098.78
2018-04-17T13:45:09.883Z,102096.81
2018-04-17T13:50:12.126Z,102093.23
2018-04-17T13:55:13.457Z,102090.97
2018-04-17T14:00:14.826Z,102097.06
2018-04-17T14:05:16.885Z,102096.97
2018-04-17T14:10:18.218Z,102095.40
2018-04-17T14:15:20.268Z,102102.30
2018-04-17T14:20:21.592Z,102095.23
2018-04-17T14:25:22.923Z,102113.21
2018-04-17T14:30:24.222Z,102098.58
2018-04-17T14:35:25.554Z,102109.95
2018-04-17T14:40:26.922Z,102096.88
2018-04-17T14:45:28.250Z,102098.50
2018-04-17T14:50:29.611Z,102101.98
2018-04-17T14:55:30.956Z,102110.91
2018-04-17T15:00:32.287Z,102110.56
2018-04-17T15:05:33.618Z,102107.25
2018-04-17T15:10:35.728Z,102106.21
2018-04-17T15:15:37.783Z,102107.73
2018-04-17T15:20:39.106Z,102107.80
2018-04-17T15:25:40.401Z,102097.45
2018-04-17T15:30:41.699Z,102101.44
2018-04-17T15:35:43.767Z,102103.62
2018-04-17T15:40:45.138Z,102109.06
2018-04-17T15:45:46.490Z,102103.30
2018-04-17T15:50:48.602Z,102103.26
2018-04-17T15:55:50.679Z,102114.18
2018-04-17T16:00:52.006Z,102100.88
2018-04-17T16:05:53.413Z,102101.80
2018-04-17T16:10:55.530Z,102113.52
2018-04-17T16:15:56.859Z,102114.21
2018-04-17T16:20:58.203Z,102109.56
2018-04-17T16:25:59.539Z,102103.46
2018-04-17T16:31:00.901Z,102104.33
2018-04-17T16:36:02.223Z,102099.24
2018-04-17T16:41:03.596Z,102107.03
2018-04-17T16:46:04.915Z,102108.19
2018-04-17T16:51:06.980Z,102123.01
2018-04-17T16:56:08.298Z,102130.27
2018-04-17T17:01:09.599Z,102135.01
2018-04-17T17:06:10.949Z,102145.83
2018-04-17T17:11:12.269Z,102146.98
2018-04-17T17:16:13.584Z,102148.17
2018-04-17T17:21:14.937Z,102151.92
2018-04-17T17:26:16.285Z,102151.53
2018-04-17T17:31:17.625Z,102159.74
2018-04-17T17:36:18.951Z,102161.08
2018-04-17T17:41:20.367Z,102170.59
2018-04-17T17:46:21.900Z,102169.77
2018-04-17T17:51:24.050Z,102175.83
2018-04-17T17:56:25.357Z,102172.84
2018-04-17T18:01:26.691Z,102176.47
2018-04-17T18:06:28.305Z,102180.85
2018-04-17T18:11:29.722Z,102185.64
2018-04-17T18:16:31.068Z,102187.97
2018-04-17T18:21:32.462Z,102193.09
2018-04-17T18:26:33.830Z,102195.22
2018-04-17T18:31:35.144Z,102199.01
2018-04-17T18:36:37.209Z,102195.83
2018-04-17T18:41:38.548Z,102203.55
2018-04-17T18:46:40.467Z,102214.69
2018-04-17T18:51:41.843Z,102231.68
2018-04-17T18:56:44.020Z,102232.12
2018-04-17T19:01:46.195Z,102235.98
2018-04-17T19:06:48.517Z,102244.72
2018-04-17T19:11:49.817Z,102243.10
2018-04-17T19:16:51.853Z,102247.06
2018-04-17T19:21:53.909Z,102247.40
2018-04-17T19:26:56.023Z,102256.69
2018-04-17T19:31:57.334Z,102258.67
2018-04-17T19:36:59.451Z,102251.72
2018-04-17T19:42:00.844Z,102269.73
2018-04-17T19:47:02.167Z,102276.89
2018-04-17T19:52:03.559Z,102284.73
2018-04-17T19:57:04.864Z,102285.89
2018-04-17T20:02:06.389Z,102291.67
2018-04-17T20:07:07.698Z,102298.94
2018-04-17T20:12:09.002Z,102300.72
2018-04-17T20:17:11.087Z,102296.34
2018-04-17T20:22:12.580Z,102300.86
2018-04-17T20:27:13.878Z,102304.87
2018-04-17T20:32:15.183Z,102303.19
2018-04-17T20:37:17.259Z,102314.91
2018-04-17T20:42:18.563Z,102309.62
2018-04-17T20:47:19.882Z,102308.15
2018-04-17T20:52:21.285Z,102315.02
2018-04-17T20:57:22.594Z,102312.22
2018-04-17T21:02:23.893Z,102312.45
2018-04-17T21:07:25.209Z,102318.51
2018-04-17T21:12:26.505Z,102316.59
2018-04-17T21:17:27.813Z,102316.89
2018-04-17T21:22:29.879Z,102323.89
2018-04-17T21:27:31.186Z,102310.95
2018-04-17T21:32:32.478Z,102315.41
2018-04-17T21:37:33.778Z,102318.61
2018-04-17T21:42:35.822Z,102328.58
2018-04-17T21:47:37.123Z,102332.28
2018-04-17T21:52:38.446Z,102332.47
2018-04-17T21:57:39.745Z,102334.30
2018-04-17T22:02:41.793Z,102327.02
2018-04-17T22:07:43.081Z,102332.37
2018-04-17T22:12:44.398Z,102335.18
2018-04-17T22:17:45.706Z,102335.94
2018-04-17T22:22:47.765Z,102342.45
2018-04-17T22:27:49.083Z,102340.47
2018-04-17T22:32:50.397Z,102342.98
2018-04-17T22:37:52.454Z,102343.34
2018-04-17T22:42:53.786Z,102337.84
2018-04-17T22:47:55.105Z,102340.91
2018-04-17T22:52:56.437Z,102345.48
2018-04-17T22:57:57.752Z,102341.72
2018-04-17T23:02:59.069Z,102346.11
2018-04-17T23:08:00.375Z,102355.01
2018-04-17T23:13:01.681Z,102356.16
2018-04-17T23:18:02.978Z,102361.05
2018-04-17T23:23:04.270Z,102372.66
2018-04-17T23:28:05.558Z,102369.55
2018-04-17T23:33:06.870Z,102374.64
2018-04-17T23:38:08.168Z,102370.98
2018-04-17T23:43:09.459Z,102361.80
2018-04-17T23:48:11.533Z,102372.52
2018-04-17T23:53:12.859Z,102373.44
2018-04-17T23:58:14.890Z,102382.13
